Time;durP1;ratioP1;P1;durP2;ratioP2;P2;SDS_P1;SDS_P2;PMS_P1;PMS_P2;Temp;Humidity;BMP_temperature;BMP_pressure;BME280_temperature;BME280_humidity;BME280_pressure;Samples;Min_cycle;Max_cycle;Signal;HPM_P1;HPM_P2
2024/01/18 00:01:31;;;;;;;;;60.75;47.00;;;;;12.40;81.36;100831.00;146606;570;47020;-67
2024/01/18 00:04:36;;;;;;;;;52.00;41.50;;;;;12.44;81.30;100836.41;146609;707;47012;-67
2024/01/18 00:07:40;;;;;;;;;56.00;45.00;;;;;12.47;81.65;100846.94;146605;570;46010;-68
2024/01/18 00:10:42;;;;;;;;;81.67;72.67;;;;;12.47;81.48;100840.87;146603;611;47916;-69
2024/01/18 00:13:37;;;;;;;;;75.33;68.67;;;;;12.45;83.77;100825.19;146616;633;47011;-67
2024/01/18 00:16:32;;;;;;;;;83.33;71.00;;;;;12.41;83.07;100827.59;146615;610;47016;-67
2024/01/18 00:19:35;;;;;;;;;83.33;73.00;;;;;12.37;82.62;100823.06;146616;628;47010;-68
2024/01/18 00:22:31;;;;;;;;;84.00;74.33;;;;;12.33;83.93;100814.22;146611;595;46017;-67
2024/01/18 00:25:37;;;;;;;;;74.00;63.33;;;;;12.27;83.96;100815.66;146618;564;47010;-67
2024/01/18 00:28:30;;;;;;;;;71.00;58.00;;;;;12.20;83.77;100819.69;146606;596;46017;-67
2024/01/18 00:31:36;;;;;;;;;76.67;67.33;;;;;12.18;84.22;100818.72;146610;569;47020;-68
2024/01/18 00:34:34;;;;;;;;;75.33;66.33;;;;;12.19;83.96;100802.31;146610;587;47016;-67
2024/01/18 00:37:28;;;;;;;;;81.00;76.33;;;;;12.22;83.73;100797.25;146612;593;47022;-68
2024/01/18 00:40:31;;;;;;;;;87.67;77.67;;;;;12.25;83.99;100806.09;146612;604;46918;-66
2024/01/18 00:43:25;;;;;;;;;92.00;82.00;;;;;12.26;83.85;100806.97;146620;565;46021;-66
2024/01/18 00:46:39;;;;;;;;;81.33;72.33;;;;;12.30;83.59;100802.78;146610;569;48014;-66
2024/01/18 00:49:36;;;;;;;;;82.33;74.00;;;;;12.34;83.39;100810.81;146618;630;47021;-66
2024/01/18 00:52:32;;;;;;;;;84.33;74.33;;;;;12.34;83.62;100796.94;146613;592;46919;-66
2024/01/18 00:55:27;;;;;;;;;82.33;70.67;;;;;12.32;83.60;100817.66;146613;654;48020;-66
2024/01/18 00:58:25;;;;;;;;;83.67;77.67;;;;;12.32;83.52;100819.38;146616;583;46012;-66
2024/01/18 01:01:23;;;;;;;;;82.33;76.00;;;;;12.31;83.51;100812.38;146615;583;47050;-66
2024/01/18 01:04:37;;;;;;;;;89.67;79.67;;;;;10.82;82.61;100550.94;146612;569;46016;-67
2024/01/18 01:07:33;;;;;;;;;90.33;79.67;;;;;12.28;83.99;100812.25;146613;622;46021;-66
2024/01/18 01:10:41;;;;;;;;;92.67;82.33;;;;;12.27;84.48;100811.34;146618;585;46016;-66
2024/01/18 01:13:33;;;;;;;;;85.33;77.33;;;;;12.30;84.04;100808.88;146616;717;46028;-66
2024/01/18 01:16:39;;;;;;;;;80.00;70.00;;;;;10.77;83.06;100539.47;146613;575;48012;-66
2024/01/18 01:19:39;;;;;;;;;75.67;69.33;;;;;12.24;84.15;100798.19;146612;686;47020;-66
2024/01/18 01:22:40;;;;;;;;;74.67;67.33;;;;;12.25;83.83;100803.47;146613;564;47012;-67
2024/01/18 01:25:35;;;;;;;;;74.00;62.33;;;;;12.27;83.97;100800.94;146617;609;47010;-67
2024/01/18 01:28:39;;;;;;;;;69.50;55.50;;;;;12.29;84.24;100796.69;146605;641;47012;-67
2024/01/18 01:31:42;;;;;;;;;69.75;51.25;;;;;12.25;84.71;100789.59;146611;565;46020;-67
2024/01/18 01:34:37;;;;;;;;;66.75;50.75;;;;;12.23;85.04;100797.31;146601;580;47928;-70
2024/01/18 01:37:40;;;;;;;;;63.50;48.00;;;;;12.20;84.32;100783.28;146599;656;47033;-68
2024/01/18 01:40:48;;;;;;;;;55.50;44.75;;;;;12.26;84.19;100801.75;146604;605;47012;-68
2024/01/18 01:43:42;;;;;;;;;53.50;41.50;;;;;12.26;85.09;100814.75;146610;751;46021;-66
2024/01/18 01:46:37;;;;;;;;;47.25;38.25;;;;;12.28;85.26;100789.75;146609;682;47012;-66
2024/01/18 01:49:32;;;;;;;;;45.75;38.50;;;;;12.26;85.32;100786.16;146610;615;46021;-67
2024/01/18 01:52:28;;;;;;;;;41.50;35.00;;;;;12.28;85.59;100796.66;146607;578;46016;-67
2024/01/18 01:55:27;;;;;;;;;62.00;48.75;;;;;12.28;85.61;100810.53;146614;638;46020;-68
2024/01/18 01:58:36;;;;;;;;;64.75;48.00;;;;;12.28;85.94;100807.06;146603;612;47012;-70
2024/01/18 02:01:31;;;;;;;;;56.75;44.50;;;;;12.27;85.47;100793.13;146615;565;46020;-69
2024/01/18 02:04:25;;;;;;;;;53.75;43.75;;;;;12.29;85.76;100796.69;146606;628;46918;-69
2024/01/18 02:07:32;;;;;;;;;47.75;38.75;;;;;11.10;85.13;100592.94;146604;610;47012;-68
2024/01/18 02:10:26;;;;;;;;;53.25;43.00;;;;;12.31;85.98;100809.78;146602;616;47012;-69
2024/01/18 02:13:19;;;;;;;;;50.00;40.25;;;;;12.34;88.19;100791.72;146608;652;47021;-69
2024/01/18 02:16:15;;;;;;;;;45.75;37.25;;;;;12.32;89.01;100776.03;146602;611;47012;-69
2024/01/18 02:19:11;;;;;;;;;39.00;33.00;;;;;12.29;88.58;100757.72;146609;621;47020;-68
2024/01/18 02:22:20;;;;;;;;;27.25;24.50;;;;;12.29;87.83;100773.31;146604;572;47016;-67
2024/01/18 02:25:32;;;;;;;;;29.50;27.75;;;;;12.31;85.83;100771.69;146609;569;46020;-67
2024/01/18 02:28:37;;;;;;;;;52.75;42.75;;;;;12.35;86.96;100775.28;146601;713;47014;-67
2024/01/18 02:31:30;;;;;;;;;48.00;38.50;;;;;12.39;86.64;100783.28;146611;576;46020;-66
2024/01/18 02:34:30;;;;;;;;;52.50;41.25;;;;;12.43;86.39;100780.03;146607;653;47012;-66
2024/01/18 02:37:40;;;;;;;;;45.50;36.50;;;;;12.47;85.98;100775.84;146605;624;46020;-68
2024/01/18 02:40:36;;;;;;;;;45.75;37.50;;;;;12.45;87.53;100773.16;146606;570;46040;-70
2024/01/18 02:43:31;;;;;;;;;46.00;38.00;;;;;12.41;88.78;100785.97;146612;573;46010;-71
2024/01/18 02:46:39;;;;;;;;;46.50;36.50;;;;;12.36;86.73;100787.47;146609;685;46012;-71
2024/01/18 02:49:47;;;;;;;;;42.00;35.25;;;;;11.06;85.91;100548.63;146607;604;47011;-70
2024/01/18 02:52:45;;;;;;;;;57.50;44.75;;;;;12.36;86.59;100780.56;146604;625;47016;-71
2024/01/18 02:55:38;;;;;;;;;47.75;39.50;;;;;11.72;86.77;100665.88;146610;569;47020;-70
2024/01/18 02:58:36;;;;;;;;;43.25;36.25;;;;;11.72;87.57;100666.75;146609;597;46911;-70
2024/01/18 03:01:31;;;;;;;;;48.75;38.00;;;;;12.35;86.59;100789.19;146610;579;47020;-71
2024/01/18 03:04:28;;;;;;;;;45.25;37.00;;;;;12.34;86.75;100777.00;146606;608;47013;-70
2024/01/18 03:07:28;;;;;;;;;46.75;36.00;;;;;12.32;86.83;100783.84;146608;588;46010;-69
2024/01/18 03:10:40;;;;;;;;;40.00;34.00;;;;;12.31;86.75;100778.59;146608;625;46013;-70
2024/01/18 03:13:36;;;;;;;;;30.50;29.00;;;;;12.25;87.60;100772.28;146606;622;47010;-69
2024/01/18 03:16:34;;;;;;;;;28.00;24.75;;;;;12.19;87.48;100768.53;146607;595;47016;-67
2024/01/18 03:19:34;;;;;;;;;29.25;27.50;;;;;12.16;86.95;100779.66;146609;609;46010;-69
2024/01/18 03:22:26;;;;;;;;;23.00;20.75;;;;;12.14;86.98;100762.22;146607;600;47012;-70
2024/01/18 03:25:19;;;;;;;;;29.25;26.00;;;;;12.16;86.77;100763.19;146610;575;47010;-68
2024/01/18 03:28:15;;;;;;;;;24.25;21.00;;;;;12.20;86.42;100757.28;146603;589;48014;-68
2024/01/18 03:31:29;;;;;;;;;29.00;26.00;;;;;12.20;86.67;100736.50;146611;599;46020;-68
2024/01/18 03:34:27;;;;;;;;;26.25;25.00;;;;;12.19;85.99;100751.22;146596;585;49916;-68
2024/01/18 03:37:29;;;;;;;;;33.50;25.75;;;;;12.19;86.24;100758.13;146601;582;47010;-69
2024/01/18 03:40:36;;;;;;;;;34.00;29.25;;;;;12.17;86.59;100759.75;146608;570;47012;-67
2024/01/18 03:43:36;;;;;;;;;18.00;18.00;;;;;12.17;88.14;100746.75;146607;650;48012;-67
2024/01/18 03:46:30;;;;;;;;;12.25;10.25;;;;;12.12;89.68;100717.06;146607;582;46016;-68
2024/01/18 03:49:26;;;;;;;;;16.50;16.00;;;;;12.11;88.99;100739.56;146612;612;46021;-67
2024/01/18 03:52:18;;;;;;;;;34.75;31.00;;;;;12.15;90.17;100745.78;146608;594;47012;-67
2024/01/18 03:55:22;;;;;;;;;36.00;31.25;;;;;12.15;87.80;100730.19;146609;626;46020;-67
2024/01/18 03:58:19;;;;;;;;;37.00;31.75;;;;;12.17;87.88;100752.84;146610;613;46035;-68
2024/01/18 04:01:29;;;;;;;;;41.75;34.25;;;;;12.22;86.32;100755.66;146610;608;46020;-68
2024/01/18 04:04:32;;;;;;;;;42.50;35.00;;;;;11.03;86.18;100551.97;146605;575;47012;-67
2024/01/18 04:07:35;;;;;;;;;42.25;36.00;;;;;12.24;86.87;100761.81;146603;585;46020;-68
2024/01/18 04:10:27;;;;;;;;;39.75;33.25;;;;;12.20;88.88;100757.28;146608;644;46012;-68
2024/01/18 04:13:22;;;;;;;;;44.25;34.75;;;;;12.14;87.29;100762.22;146604;588;47010;-67
2024/01/18 04:16:25;;;;;;;;;33.75;31.00;;;;;12.11;87.21;100762.97;146607;604;47012;-67
2024/01/18 04:19:32;;;;;;;;;31.50;29.25;;;;;12.07;87.30;100760.16;146609;624;46021;-65
2024/01/18 04:22:30;;;;;;;;;28.75;26.50;;;;;12.00;87.90;100757.28;146609;566;46016;-65
2024/01/18 04:25:26;;;;;;;;;31.75;27.50;;;;;11.96;86.82;100763.16;146606;627;47021;-66
2024/01/18 04:28:29;;;;;;;;;35.00;29.75;;;;;11.98;86.21;100766.72;146611;602;46012;-67
2024/01/18 04:31:48;;;;;;;;;37.50;33.25;;;;;11.99;86.52;100765.00;146613;582;46029;-65
2024/01/18 04:34:46;;;;;;;;;33.75;32.00;;;;;11.97;86.18;100764.94;146605;573;47016;-66
2024/01/18 04:37:51;;;;;;;;;30.25;28.00;;;;;11.95;86.89;100758.78;146607;646;47010;-67
2024/01/18 04:40:46;;;;;;;;;28.00;24.75;;;;;11.87;87.06;100754.03;146608;576;46013;-67
2024/01/18 04:43:51;;;;;;;;;27.75;24.00;;;;;11.77;86.28;100764.00;146607;569;46012;-68
2024/01/18 04:46:43;;;;;;;;;26.25;23.50;;;;;11.72;86.39;100762.87;146606;579;46016;-66
2024/01/18 04:49:37;;;;;;;;;24.00;23.25;;;;;11.72;86.17;100759.41;146608;564;47010;-65
2024/01/18 04:52:34;;;;;;;;;32.25;27.25;;;;;11.70;85.76;100768.81;146604;597;47012;-65
2024/01/18 04:55:33;;;;;;;;;37.00;30.75;;;;;11.72;86.64;100762.87;146614;586;47012;-68
2024/01/18 04:58:49;;;;;;;;;28.00;24.50;;;;;11.70;86.62;100769.69;146605;629;46918;-67
2024/01/18 05:01:51;;;;;;;;;29.25;25.25;;;;;11.71;86.64;100775.78;146604;626;46020;-67
2024/01/18 05:04:46;;;;;;;;;31.00;29.00;;;;;11.65;86.25;100766.00;146611;633;46012;-67
2024/01/18 05:07:42;;;;;;;;;25.25;20.00;;;;;11.61;86.19;100763.19;146604;670;47020;-67
2024/01/18 05:10:38;;;;;;;;;31.50;29.75;;;;;11.58;86.65;100766.50;146609;733;46017;-68
2024/01/18 05:13:36;;;;;;;;;16.25;15.00;;;;;11.54;86.62;100768.06;146610;606;47010;-68
2024/01/18 05:16:39;;;;;;;;;13.50;12.00;;;;;11.49;86.79;100768.66;146610;673;46017;-65
2024/01/18 05:19:36;;;;;;;;;11.50;11.00;;;;;11.47;90.07;100760.81;146613;604;46021;-69
2024/01/18 05:22:32;;;;;;;;;42.50;34.25;;;;;11.52;87.62;100772.28;146607;569;46016;-68
2024/01/18 05:25:27;;;;;;;;;41.00;32.00;;;;;11.59;87.00;100773.50;146604;567;48034;-68
2024/01/18 05:28:25;;;;;;;;;43.25;36.25;;;;;11.67;86.37;100777.34;146606;581;46016;-69
2024/01/18 05:31:18;;;;;;;;;46.00;36.50;;;;;11.72;87.20;100768.06;146610;648;46020;-69
2024/01/18 05:34:19;;;;;;;;;53.00;43.75;;;;;11.73;89.06;100759.44;146607;570;46012;-69
2024/01/18 05:37:22;;;;;;;;;;;;;;;;;;;;;
2024/01/18 05:40:30;;;;;;;;;45.00;37.00;;;;;11.64;87.21;100755.53;146607;632;46914;-69
2024/01/18 05:43:35;;;;;;;;;43.50;33.25;;;;;11.65;88.66;100739.13;146607;564;48030;-71
2024/01/18 05:46:31;;;;;;;;;27.25;27.25;;;;;11.69;87.91;100741.94;146607;572;47016;-67
2024/01/18 05:49:41;;;;;;;;;48.00;36.00;;;;;11.74;87.82;100732.69;146609;618;47020;-67
2024/01/18 05:52:34;;;;;;;;;62.00;49.75;;;;;11.80;88.02;100725.13;146607;570;46034;-68
2024/01/18 05:55:26;;;;;;;;;54.00;42.50;;;;;11.84;87.68;100720.06;146600;570;47021;-68
2024/01/18 05:58:38;;;;;;;;;;;;;;;;;;;;;
2024/01/18 06:01:31;;;;;;;;;41.50;35.25;;;;;11.93;86.71;100723.12;146609;609;47012;-69
2024/01/18 06:04:33;;;;;;;;;47.50;37.75;;;;;11.98;87.18;100719.03;146603;614;47037;-69
2024/01/18 06:07:32;;;;;;;;;49.00;39.25;;;;;12.00;86.81;100718.31;146603;586;47010;-69
2024/01/18 06:10:46;;;;;;;;;56.75;45.25;;;;;12.05;86.58;100715.00;146606;592;46019;-67
2024/01/18 06:13:39;;;;;;;;;67.25;51.00;;;;;12.07;86.54;100714.25;146613;591;47010;-66
2024/01/18 06:16:40;;;;;;;;;55.50;43.25;;;;;12.08;86.08;100716.03;146606;577;46017;-66
2024/01/18 06:19:35;;;;;;;;;55.50;44.00;;;;;12.11;87.02;100710.09;146612;606;46010;-66
2024/01/18 06:22:32;;;;;;;;;61.25;48.25;;;;;12.12;87.30;100704.06;146610;579;46012;-67
2024/01/18 06:25:32;;;;;;;;;42.75;35.00;;;;;12.13;88.33;100691.16;146612;618;46021;-68
2024/01/18 06:28:24;;;;;;;;;30.50;27.75;;;;;12.16;87.56;100700.78;146607;579;47012;-66
2024/01/18 06:31:19;;;;;;;;;52.25;41.50;;;;;12.20;87.42;100707.91;146611;609;46010;-66
2024/01/18 06:34:16;;;;;;;;;53.25;43.00;;;;;12.25;87.09;100714.19;146606;619;46916;-67
2024/01/18 06:37:17;;;;;;;;;52.75;41.50;;;;;12.35;86.75;100718.97;146604;568;47020;-66
2024/01/18 06:40:18;;;;;;;;;50.50;41.00;;;;;12.44;86.80;100721.97;146606;596;47013;-67
2024/01/18 06:43:16;;;;;;;;;56.25;42.75;;;;;12.58;88.65;100717.34;146611;605;47020;-68
2024/01/18 06:46:22;;;;;;;;;59.50;45.25;;;;;13.08;88.36;100712.50;146608;576;46033;-68
2024/01/18 06:49:18;;;;;;;;;160.00;135.00;;;;;13.53;88.63;100697.87;146615;609;46030;-68
2024/01/18 06:52:24;;;;;;;;;41.25;35.00;;;;;14.20;84.84;100688.16;146611;624;46918;-68
2024/01/18 06:55:26;;;;;;;;;41.00;33.50;;;;;14.78;82.72;100670.22;146606;564;47011;-68
2024/01/18 06:58:21;;;;;;;;;49.50;39.75;;;;;15.17;79.86;100677.59;146610;624;46016;-69
2024/01/18 07:01:17;;;;;;;;;44.25;37.75;;;;;15.27;75.54;100694.44;146608;603;46010;-68
2024/01/18 07:04:28;;;;;;;;;;;;;;;;;;;;;
2024/01/18 07:07:26;;;;;;;;;22.75;21.25;;;;;14.93;74.43;100695.97;146601;599;46020;-68
2024/01/18 07:10:29;;;;;;;;;24.50;23.00;;;;;14.89;75.96;100693.19;146602;672;47014;-67
2024/01/18 07:13:21;;;;;;;;;27.00;24.00;;;;;14.83;75.61;100687.75;146610;569;47010;-68
2024/01/18 07:16:20;;;;;;;;;19.00;16.75;;;;;14.67;76.87;100674.22;146605;630;46026;-68
2024/01/18 07:19:24;;;;;;;;;19.25;17.75;;;;;14.58;78.62;100675.59;146609;623;46020;-68
2024/01/18 07:22:24;;;;;;;;;36.25;30.00;;;;;14.82;81.50;100660.78;146606;564;47017;-69
2024/01/18 07:25:19;;;;;;;;;16.50;16.00;;;;;15.28;79.32;100687.50;146608;598;46010;-69
2024/01/18 07:28:15;;;;;;;;;28.25;27.25;;;;;15.70;76.46;100693.19;146607;593;47012;-70
2024/01/18 07:31:10;;;;;;;;;30.25;26.50;;;;;16.10;74.49;100686.50;146611;596;46021;-70
2024/01/18 07:34:10;;;;;;;;;26.50;23.50;;;;;16.46;74.28;100702.31;146607;599;46014;-68
2024/01/18 07:37:17;;;;;;;;;39.25;29.50;;;;;16.75;71.94;100684.78;146603;566;46020;-67
2024/01/18 07:40:27;;;;;;;;;26.50;22.25;;;;;16.92;69.20;100676.50;146608;570;47012;-66
2024/01/18 07:43:32;;;;;;;;;22.00;19.25;;;;;16.88;69.55;100683.34;146614;588;46020;-67
2024/01/18 07:46:34;;;;;;;;;26.50;22.25;;;;;16.88;71.72;100683.34;146611;565;46017;-67
2024/01/18 07:49:45;;;;;;;;;30.50;27.75;;;;;16.94;71.70;100672.16;146610;657;47020;-68
2024/01/18 07:52:41;;;;;;;;;23.75;18.00;;;;;16.96;71.85;100653.00;146606;582;46016;-67
2024/01/18 07:55:36;;;;;;;;;16.25;12.00;;;;;16.84;71.90;100658.84;146612;625;46010;-69
2024/01/18 07:58:36;;;;;;;;;19.75;18.25;;;;;16.79;72.22;100649.09;146607;584;46016;-68
2024/01/18 08:01:47;;;;;;;;;22.25;19.75;;;;;16.82;72.21;100647.47;146603;626;47020;-69
2024/01/18 08:04:42;;;;;;;;;22.00;20.00;;;;;16.85;72.50;100639.69;146607;691;46016;-68
2024/01/18 08:07:35;;;;;;;;;32.50;29.50;;;;;16.89;72.53;100639.75;146603;592;47010;-68
2024/01/18 08:10:30;;;;;;;;;37.25;32.00;;;;;16.83;71.98;100643.09;146603;597;47014;-68
2024/01/18 08:13:28;;;;;;;;;38.00;33.00;;;;;16.73;72.44;100641.94;146607;594;46020;-68
2024/01/18 08:16:40;;;;;;;;;40.25;32.75;;;;;16.71;73.58;100627.94;146605;707;47013;-68
2024/01/18 08:19:47;;;;;;;;;27.75;24.25;;;;;16.84;72.77;100618.66;146610;666;46028;-68
2024/01/18 08:22:49;;;;;;;;;22.50;21.00;;;;;16.96;72.28;100623.31;146604;626;46013;-70
2024/01/18 08:25:48;;;;;;;;;35.50;28.25;;;;;17.01;71.15;100621.72;146613;585;46020;-69
2024/01/18 08:28:43;;;;;;;;;27.25;24.25;;;;;16.99;71.91;100636.50;146601;563;47012;-69
2024/01/18 08:31:43;;;;;;;;;30.75;28.25;;;;;17.11;74.45;100649.00;146612;583;47010;-69
2024/01/18 08:34:38;;;;;;;;;23.25;21.75;;;;;17.37;74.76;100653.09;146605;570;46016;-70
2024/01/18 08:37:30;;;;;;;;;16.50;14.75;;;;;17.66;71.94;100643.25;146602;581;47020;-71
2024/01/18 08:40:42;;;;;;;;;44.00;34.75;;;;;17.91;70.79;100652.56;146607;596;47016;-70
2024/01/18 08:43:45;;;;;;;;;20.75;18.00;;;;;18.13;70.39;100635.50;146609;628;46012;-70
2024/01/18 08:46:46;;;;;;;;;12.00;11.25;;;;;18.34;68.05;100641.97;146605;576;46014;-70
2024/01/18 08:49:58;;;;;;;;;15.00;15.00;;;;;18.53;67.98;100637.94;146612;563;46020;-70
2024/01/18 08:53:04;;;;;;;;;22.00;19.25;;;;;18.66;67.90;100632.03;146605;603;47017;-69
2024/01/18 08:56:22;;;;;;;;;23.50;19.00;;;;;18.83;66.00;100616.59;146610;675;47020;-70
2024/01/18 08:59:21;;;;;;;;;15.75;15.75;;;;;18.95;64.69;100600.16;146606;569;46026;-71
2024/01/18 09:02:31;;;;;;;;;15.00;14.00;;;;;17.80;65.82;100396.16;146606;605;47010;-70
2024/01/18 09:05:29;;;;;;;;;18.00;17.25;;;;;19.19;66.07;100602.22;146604;682;47012;-71
2024/01/18 09:08:28;;;;;;;;;17.00;16.00;;;;;19.39;64.21;100614.78;146603;598;47021;-72
2024/01/18 09:11:29;;;;;;;;;10.67;8.67;;;;;19.55;63.09;100599.22;146602;564;47916;-71
2024/01/18 09:14:21;;;;;;;;;11.67;8.67;;;;;19.54;61.11;100597.47;146617;582;47010;-70
2024/01/18 09:17:19;;;;;;;;;12.00;10.00;;;;;19.56;60.79;100580.84;146614;566;46014;-71
2024/01/18 09:20:25;;;;;;;;;12.00;9.67;;;;;19.65;62.88;100569.56;146610;563;46010;-71
2024/01/18 09:23:27;;;;;;;;;12.75;12.00;;;;;19.79;64.10;100567.09;146614;564;47923;-71
2024/01/18 09:26:33;;;;;;;;;16.25;16.00;;;;;19.92;63.33;100560.22;146607;628;47010;-71
2024/01/18 09:29:28;;;;;;;;;11.75;10.75;;;;;20.05;62.53;100557.72;146604;581;46013;-71
2024/01/18 09:32:31;;;;;;;;;9.33;9.00;;;;;20.13;62.45;100547.28;146603;612;48010;-71
2024/01/18 09:35:33;;;;;;;;;14.00;13.00;;;;;20.18;62.72;100560.47;146611;582;47016;-73
2024/01/18 09:38:29;;;;;;;;;17.00;15.50;;;;;20.22;60.64;100554.38;146599;629;48028;-72
2024/01/18 09:41:26;;;;;;;;;18.75;16.25;;;;;20.21;60.81;100549.97;146605;717;46016;-72
2024/01/18 09:44:43;;;;;;;;;16.25;16.25;;;;;20.24;62.25;100542.09;146610;669;47010;-70
2024/01/18 09:47:53;;;;;;;;;18.75;16.00;;;;;20.28;61.31;100542.16;146605;663;46012;-72
2024/01/18 09:50:52;;;;;;;;;18.50;17.00;;;;;20.36;60.60;100529.03;146608;565;47021;-72
2024/01/18 09:53:56;;;;;;;;;18.50;14.50;;;;;20.43;60.07;100537.88;146605;595;46017;-73
2024/01/18 09:57:11;;;;;;;;;16.50;14.75;;;;;19.50;62.58;100366.84;146608;592;46020;-73
2024/01/18 10:00:44;;;;;;;;;18.00;15.75;;;;;19.39;62.92;100336.09;146605;630;47014;-71
2024/01/18 10:03:42;;;;;;;;;22.00;20.75;;;;;20.79;60.54;100533.78;146612;640;46020;-71
2024/01/18 10:07:00;;;;;;;;;19.50;15.00;;;;;20.91;59.40;100536.50;146603;672;47014;-71
2024/01/18 10:09:59;;;;;;;;;15.75;13.00;;;;;20.97;57.66;100547.09;146602;729;46010;-71
2024/01/18 10:13:01;;;;;;;;;16.75;15.75;;;;;20.95;59.52;100544.41;146600;581;47016;-71
2024/01/18 10:16:16;;;;;;;;;15.75;14.50;;;;;20.94;59.80;100536.53;146605;567;47010;-71
2024/01/18 10:19:39;;;;;;;;;15.00;14.00;;;;;21.05;60.76;100526.03;146604;565;47016;-72
2024/01/18 10:22:34;;;;;;;;;12.00;11.25;;;;;21.16;57.32;100514.66;146606;590;47020;-71
2024/01/18 10:25:57;;;;;;;;;16.75;14.50;;;;;20.05;59.79;100312.94;146607;579;46016;-71
2024/01/18 10:28:53;;;;;;;;;18.25;16.75;;;;;21.21;56.79;100501.47;146610;635;47012;-71
2024/01/18 10:32:06;;;;;;;;;16.50;14.75;;;;;21.26;60.37;100488.34;146608;670;46016;-71
2024/01/18 10:35:02;;;;;;;;;7.00;6.75;;;;;21.38;57.34;100477.87;146606;571;48020;-71
2024/01/18 10:38:17;;;;;;;;;16.25;13.00;;;;;20.30;60.18;100256.03;146611;698;48012;-70
2024/01/18 10:41:23;;;;;;;;;15.00;13.00;;;;;21.62;57.94;100462.09;146605;704;46010;-71
2024/01/18 10:44:19;;;;;;;;;12.75;11.50;;;;;21.71;57.03;100452.41;146604;587;46016;-71
2024/01/18 10:47:22;;;;;;;;;16.00;15.00;;;;;20.63;58.37;100235.12;146611;575;46010;-71
2024/01/18 10:50:22;;;;;;;;;16.75;16.25;;;;;21.92;54.99;100445.41;146608;620;46012;-70
2024/01/18 10:53:37;;;;;;;;;18.00;15.75;;;;;22.02;55.20;100417.25;146607;677;47018;-70
2024/01/18 10:56:29;;;;;;;;;19.25;18.25;;;;;22.06;52.65;100415.50;146603;676;48021;-71
2024/01/18 10:59:25;;;;;;;;;23.00;18.25;;;;;22.06;54.60;100400.53;146612;592;47025;-72
2024/01/18 11:02:39;;;;;;;;;15.00;13.00;;;;;22.16;53.10;100397.88;146608;565;47016;-71
2024/01/18 11:05:47;;;;;;;;;18.25;16.25;;;;;21.65;56.86;100280.03;146610;721;46020;-71
2024/01/18 11:08:42;;;;;;;;;15.50;13.25;;;;;22.39;52.38;100377.59;146600;684;47012;-71
2024/01/18 11:11:39;;;;;;;;;10.33;8.67;;;;;22.45;47.13;100360.88;146604;576;48013;-71
2024/01/18 11:14:46;;;;;;;;;11.00;9.67;;;;;22.43;48.61;100352.97;146614;654;46016;-69
2024/01/18 11:17:42;;;;;;;;;5.33;4.33;;;;;22.37;47.58;100343.28;146618;569;46032;-71
2024/01/18 11:20:58;;;;;;;;;14.00;12.67;;;;;22.38;49.76;100338.87;146611;652;47016;-71
2024/01/18 11:23:52;;;;;;;;;17.75;16.50;;;;;22.45;51.97;100324.75;146611;569;46012;-70
2024/01/18 11:27:03;;;;;;;;;20.00;17.50;;;;;21.54;56.35;100152.53;146603;628;46012;-72
2024/01/18 11:30:09;;;;;;;;;16.25;12.75;;;;;22.60;52.52;100334.38;146610;596;47010;-70
2024/01/18 11:33:15;;;;;;;;;13.33;12.00;;;;;22.69;54.90;100341.41;146604;580;46922;-70
2024/01/18 11:36:24;;;;;;;;;9.67;9.67;;;;;22.68;49.18;100340.53;146612;601;46021;-71
2024/01/18 11:39:29;;;;;;;;;;;;;;;;;;;;;
2024/01/18 11:42:47;;;;;;;;;;;;;;;;;;;;;
2024/01/18 11:45:41;;;;;;;;;8.00;6.00;;;;;22.46;43.73;100326.53;146611;579;47012;-70
2024/01/18 11:48:37;;;;;;;;;7.00;5.67;;;;;22.27;43.75;100319.53;146620;569;46013;-69
2024/01/18 11:52:05;;;;;;;;;12.00;9.33;;;;;22.07;51.56;100317.78;146613;602;47012;-73
2024/01/18 11:58:53;;;;;;;;;10.67;8.33;;;;;22.01;46.02;100298.44;146606;563;46016;-69
2024/01/18 12:01:48;;;;;;;;;11.67;8.67;;;;;22.05;44.97;100297.56;146616;692;47012;-71
2024/01/18 12:04:45;;;;;;;;;7.33;5.00;;;;;22.11;44.30;100306.34;146614;584;46016;-71
2024/01/18 12:07:43;;;;;;;;;3.33;3.00;;;;;22.18;45.38;100301.97;146615;569;47020;-71
2024/01/18 12:11:00;;;;;;;;;12.33;11.33;;;;;22.28;47.86;100294.91;146606;722;47012;-72
2024/01/18 12:14:00;;;;;;;;;10.67;7.33;;;;;22.41;44.95;100295.72;146605;564;46029;-71
2024/01/18 12:17:08;;;;;;;;;6.00;4.00;;;;;22.54;46.35;100287.72;146617;569;46016;-72
2024/01/18 12:20:00;;;;;;;;;2.33;2.00;;;;;22.64;43.04;100274.47;146620;623;46010;-71
2024/01/18 12:22:56;;;;;;;;;4.00;4.00;;;;;22.71;42.80;100271.81;146614;649;46916;-72
2024/01/18 12:25:54;;;;;;;;;6.67;5.33;;;;;22.86;45.32;100272.59;146619;569;47010;-71
2024/01/18 12:28:59;;;;;;;;;7.00;7.00;;;;;21.81;48.17;100040.75;146615;614;47012;-71
2024/01/18 12:31:57;;;;;;;;;9.33;9.33;;;;;23.35;45.85;100261.69;146618;615;46020;-71
2024/01/18 12:34:50;;;;;;;;;3.00;3.00;;;;;23.65;43.94;100257.91;146612;583;47017;-71
2024/01/18 12:38:07;;;;;;;;;8.67;8.00;;;;;23.90;48.92;100235.59;146619;690;47012;-71
2024/01/18 12:41:08;;;;;;;;;8.00;8.00;;;;;24.03;45.19;100238.97;146613;685;46016;-70
2024/01/18 12:44:29;;;;;;;;;9.00;7.00;;;;;24.06;43.71;100240.72;146605;587;46012;-72
2024/01/18 12:47:31;;;;;;;;;8.00;6.00;;;;;24.08;43.34;100244.22;146612;598;47016;-71
2024/01/18 12:50:37;;;;;;;;;8.33;6.00;;;;;24.18;45.83;100241.44;146613;572;47916;-72
2024/01/18 12:53:45;;;;;;;;;6.00;5.00;;;;;24.41;44.49;100230.56;146611;601;48012;-72
2024/01/18 12:57:16;;;;;;;;;8.00;6.67;;;;;24.57;47.53;100238.31;146617;596;47010;-74
2024/01/18 13:00:28;;;;;;;;;7.00;7.00;;;;;24.60;44.02;100240.94;146609;580;46016;-73
2024/01/18 13:03:31;;;;;;;;;8.00;5.67;;;;;24.68;44.59;100243.50;146617;597;46021;-70
2024/01/18 13:06:35;;;;;;;;;38.00;31.75;;;;;24.77;46.38;100238.94;146609;579;47014;-70
2024/01/18 13:09:34;;;;;;;;;5.67;5.00;;;;;24.84;44.08;100229.97;146612;576;46020;-70
2024/01/18 13:12:29;;;;;;;;;8.00;8.00;;;;;24.89;44.79;100225.50;146610;595;47013;-70
2024/01/18 13:15:30;;;;;;;;;7.67;6.67;;;;;24.93;44.60;100228.09;146608;683;46010;-71
2024/01/18 13:18:42;;;;;;;;;10.00;8.67;;;;;24.76;44.30;100236.28;146615;650;46017;-70
2024/01/18 13:21:54;;;;;;;;;13.67;12.00;;;;;24.57;47.60;100238.31;146621;569;46010;-69
2024/01/18 13:25:01;;;;;;;;;13.33;10.67;;;;;24.62;47.96;100228.53;146605;583;46016;-69
2024/01/18 13:28:02;;;;;;;;;8.33;8.00;;;;;24.80;46.38;100236.22;146613;719;46020;-70
2024/01/18 13:31:10;;;;;;;;;10.67;10.67;;;;;24.93;46.14;100228.97;146610;599;46014;-71
2024/01/18 13:34:25;;;;;;;;;12.33;11.33;;;;;24.48;48.70;100133.31;146613;593;46021;-70
2024/01/18 13:37:26;;;;;;;;;12.67;11.33;;;;;25.15;44.57;100229.53;146608;591;47012;-71
2024/01/18 13:40:31;;;;;;;;;14.00;14.00;;;;;25.23;46.44;100235.56;146612;606;46020;-70
2024/01/18 13:43:28;;;;;;;;;20.50;17.25;;;;;25.28;43.83;100236.38;146607;565;46016;-70
2024/01/18 13:46:31;;;;;;;;;21.50;18.00;;;;;25.41;45.87;100233.50;146605;612;46011;-71
2024/01/18 13:49:34;;;;;;;;;17.75;14.50;;;;;25.09;43.71;100168.59;146606;668;46016;-71
2024/01/18 13:52:35;;;;;;;;;10.33;10.33;;;;;25.69;42.81;100244.50;146609;571;47010;-71
2024/01/18 13:55:30;;;;;;;;;22.50;19.50;;;;;25.74;42.08;100246.19;146602;696;47012;-70
2024/01/18 13:58:35;;;;;;;;;19.00;17.75;;;;;25.73;42.02;100244.44;146613;640;46020;-71
2024/01/18 14:01:39;;;;;;;;;;;;;;;;;;;;;